Time;durP1;ratioP1;P1;durP2;ratioP2;P2;SDS_P1;SDS_P2;PMS_P1;PMS_P2;Temp;Humidity;BMP_temperature;BMP_pressure;BME280_temperature;BME280_humidity;BME280_pressure;Samples;Min_cycle;Max_cycle;Signal;HPM_P1;HPM_P2
2024/02/08 00:02:19;;;;;;;5.33;5.23;;;4.70;99.90;;;;;;5053462;28;20463;-70
2024/02/08 00:04:47;;;;;;;5.53;5.43;;;4.70;99.90;;;;;;5057541;28;20468;-70
2024/02/08 00:07:14;;;;;;;5.40;5.30;;;4.60;99.90;;;;;;5052888;28;20529;-71
2024/02/08 00:09:41;;;;;;;5.27;5.17;;;4.50;99.90;;;;;;5057880;28;20570;-70
2024/02/08 00:12:08;;;;;;;6.00;5.90;;;4.60;99.90;;;;;;5056395;28;20464;-71
2024/02/08 00:14:35;;;;;;;5.50;5.40;;;4.70;99.90;;;;;;5050014;28;21087;-71
2024/02/08 00:17:03;;;;;;;5.03;4.97;;;4.70;99.90;;;;;;5055898;28;20489;-71
2024/02/08 00:19:31;;;;;;;5.27;5.17;;;4.60;99.90;;;;;;5049154;28;20961;-71
2024/02/08 00:21:58;;;;;;;5.00;5.00;;;4.70;99.90;;;;;;5047686;28;20732;-71
2024/02/08 00:24:25;;;;;;;5.47;5.37;;;4.70;99.90;;;;;;5054202;28;20459;-71
2024/02/08 00:26:52;;;;;;;5.20;5.10;;;4.70;99.90;;;;;;5044537;28;20474;-71
2024/02/08 00:29:21;;;;;;;5.73;5.63;;;4.70;99.90;;;;;;5059603;28;20467;-71
2024/02/08 00:31:48;;;;;;;6.40;6.30;;;4.80;99.90;;;;;;5048147;28;20532;-70
2024/02/08 00:34:18;;;;;;;5.80;5.70;;;4.90;99.90;;;;;;5056913;28;20492;-69
2024/02/08 00:36:49;;;;;;;5.63;5.53;;;4.80;99.90;;;;;;5051252;28;20530;-71
2024/02/08 00:39:16;;;;;;;6.00;5.90;;;4.80;99.90;;;;;;5048489;28;20448;-69
2024/02/08 00:41:49;;;;;;;6.00;5.90;;;4.80;99.90;;;;;;5046439;28;20512;-70
2024/02/08 00:44:30;;;;;;;6.33;6.23;;;4.90;99.90;;;;;;5050271;28;20464;-71
2024/02/08 00:46:58;;;;;;;6.30;6.20;;;5.00;99.90;;;;;;5054345;28;20471;-71
2024/02/08 00:49:25;;;;;;;6.13;6.03;;;5.00;99.90;;;;;;5047756;28;20547;-71
2024/02/08 00:51:53;;;;;;;5.90;5.80;;;4.90;99.90;;;;;;5049790;28;20461;-72
2024/02/08 00:54:20;;;;;;;5.57;5.47;;;4.90;99.90;;;;;;5049894;28;20498;-69
2024/02/08 00:56:49;;;;;;;5.90;5.80;;;4.90;99.90;;;;;;5050414;28;20453;-71
2024/02/08 00:59:16;;;;;;;5.60;5.50;;;5.00;99.90;;;;;;5046694;28;20591;-71
2024/02/08 01:01:43;;;;;;;5.60;5.50;;;4.90;99.90;;;;;;5050332;28;20845;-70
2024/02/08 01:04:10;;;;;;;5.53;5.43;;;4.90;99.90;;;;;;5046509;28;20467;-71
2024/02/08 01:06:40;;;;;;;5.13;5.03;;;4.90;99.90;;;;;;5049763;28;20982;-71
2024/02/08 01:09:08;;;;;;;5.30;5.20;;;4.90;99.90;;;;;;5057417;28;20451;-71
2024/02/08 01:11:35;;;;;;;5.33;5.23;;;4.90;99.90;;;;;;5045914;28;20463;-72
2024/02/08 01:14:03;;;;;;;5.30;5.20;;;4.80;99.90;;;;;;5046367;28;20492;-71
2024/02/08 01:16:31;;;;;;;4.90;4.90;;;4.90;99.90;;;;;;5054869;28;20870;-69
2024/02/08 01:18:59;;;;;;;4.70;4.70;;;4.90;99.90;;;;;;5056810;28;20979;-71
2024/02/08 01:21:26;;;;;;;4.87;4.87;;;4.90;99.90;;;;;;5044864;28;20464;-70
2024/02/08 01:23:53;;;;;;;5.50;5.40;;;4.90;99.90;;;;;;5048806;28;20457;-71
2024/02/08 01:26:21;;;;;;;4.70;4.70;;;5.00;99.90;;;;;;5048393;28;20474;-71
2024/02/08 01:28:48;;;;;;;4.67;4.67;;;4.90;99.90;;;;;;5045342;28;20538;-70
2024/02/08 01:31:15;;;;;;;5.10;5.00;;;4.80;99.90;;;;;;5056396;28;20517;-71
2024/02/08 01:33:44;;;;;;;5.50;5.40;;;4.80;99.90;;;;;;5054251;28;20514;-70
2024/02/08 01:36:11;;;;;;;5.70;5.60;;;5.00;99.90;;;;;;5052465;28;21026;-70
2024/02/08 01:38:40;;;;;;;5.70;5.60;;;5.10;99.90;;;;;;5047190;28;20995;-70
2024/02/08 01:41:07;;;;;;;5.57;5.47;;;5.00;99.90;;;;;;5046128;28;20455;-71
2024/02/08 01:43:36;;;;;;;5.37;5.27;;;5.10;99.90;;;;;;5049497;28;20852;-70
2024/02/08 01:46:03;;;;;;;6.50;6.40;;;5.10;99.90;;;;;;5051892;28;20466;-70
2024/02/08 01:48:30;;;;;;;6.07;5.97;;;5.10;99.90;;;;;;5052011;28;20466;-71
2024/02/08 01:51:04;;;;;;;5.87;5.77;;;5.10;99.90;;;;;;5047775;28;20463;-71
2024/02/08 01:53:32;;;;;;;5.80;5.70;;;5.10;99.90;;;;;;5051045;28;20576;-70
2024/02/08 01:56:02;;;;;;;5.60;5.50;;;5.10;99.90;;;;;;5050422;28;20800;-71
2024/02/08 01:58:30;;;;;;;5.93;5.83;;;5.10;99.90;;;;;;5054761;28;20505;-70
2024/02/08 02:01:00;;;;;;;5.20;5.10;;;5.10;99.90;;;;;;5053848;28;20467;-71
2024/02/08 02:03:27;;;;;;;5.63;5.53;;;4.90;99.90;;;;;;5048009;28;20558;-70
2024/02/08 02:05:54;;;;;;;4.90;4.90;;;5.00;99.90;;;;;;5052089;28;20464;-70
2024/02/08 02:08:23;;;;;;;5.40;5.30;;;5.00;99.90;;;;;;5046671;28;21066;-71
2024/02/08 02:11:01;;;;;;;5.23;5.13;;;4.90;99.90;;;;;;5052356;28;21061;-70
2024/02/08 02:13:29;;;;;;;4.93;4.93;;;5.00;99.90;;;;;;5058960;28;20482;-70
2024/02/08 02:15:56;;;;;;;5.40;5.30;;;5.00;99.90;;;;;;5048717;28;20481;-70
2024/02/08 02:18:24;;;;;;;4.53;4.53;;;5.00;99.90;;;;;;5051446;28;20467;-71
2024/02/08 02:20:54;;;;;;;4.80;4.80;;;5.00;99.90;;;;;;5045968;28;20814;-72
2024/02/08 02:23:22;;;;;;;4.50;4.50;;;4.90;99.90;;;;;;5055118;28;21053;-70
2024/02/08 02:25:51;;;;;;;4.53;4.53;;;4.90;99.90;;;;;;5045227;28;20491;-71
2024/02/08 02:28:19;;;;;;;4.60;4.60;;;4.80;99.90;;;;;;5054377;28;20448;-69
2024/02/08 02:30:48;;;;;;;4.20;4.20;;;4.70;99.90;;;;;;5052555;28;20517;-71
2024/02/08 02:33:19;;;;;;;4.20;4.20;;;4.70;99.90;;;;;;5050924;28;20486;-72
2024/02/08 02:35:48;;;;;;;4.07;4.07;;;4.70;99.90;;;;;;5045709;28;20467;-70
2024/02/08 02:38:17;;;;;;;4.00;4.00;;;4.60;99.90;;;;;;5049840;28;20462;-71
2024/02/08 02:40:46;;;;;;;4.20;4.20;;;4.70;99.90;;;;;;5049455;28;20549;-70
2024/02/08 02:43:14;;;;;;;3.97;3.97;;;4.70;99.90;;;;;;5047101;28;20962;-69
2024/02/08 02:45:42;;;;;;;3.83;3.83;;;4.70;99.90;;;;;;5050945;28;20474;-71
2024/02/08 02:48:09;;;;;;;4.80;4.80;;;4.80;99.90;;;;;;5048185;28;20468;-72
2024/02/08 02:50:40;;;;;;;4.83;4.83;;;4.80;99.90;;;;;;5055515;28;20464;-70
2024/02/08 02:53:07;;;;;;;4.77;4.77;;;4.90;99.90;;;;;;5052561;28;20855;-72
2024/02/08 02:55:37;;;;;;;4.53;4.53;;;5.00;99.90;;;;;;5045989;28;20469;-71
2024/02/08 02:58:05;;;;;;;4.80;4.80;;;4.90;99.90;;;;;;5052020;28;20838;-71
2024/02/08 03:00:34;;;;;;;4.90;4.90;;;5.00;99.90;;;;;;5051860;28;21090;-69
2024/02/08 03:03:07;;;;;;;4.50;4.50;;;4.90;99.90;;;;;;5058210;28;20459;-72
2024/02/08 03:05:35;;;;;;;4.53;4.53;;;4.80;99.90;;;;;;5063340;28;20896;-72
2024/02/08 03:08:05;;;;;;;4.87;4.87;;;4.80;99.90;;;;;;5051390;28;20639;-72
2024/02/08 03:10:33;;;;;;;4.80;4.80;;;4.80;99.90;;;;;;5056295;28;20459;-71
2024/02/08 03:13:00;;;;;;;4.90;4.90;;;4.80;99.90;;;;;;5049866;28;20495;-72
2024/02/08 03:15:28;;;;;;;4.87;4.87;;;4.90;99.90;;;;;;5049002;28;20487;-71
2024/02/08 03:17:56;;;;;;;4.50;4.50;;;5.00;99.90;;;;;;5051650;28;20452;-70
2024/02/08 03:20:29;;;;;;;4.17;4.17;;;4.90;99.90;;;;;;5062620;28;20469;-70
2024/02/08 03:22:57;;;;;;;4.50;4.50;;;4.90;99.90;;;;;;5056556;28;20474;-71
2024/02/08 03:25:24;;;;;;;4.27;4.27;;;4.90;99.90;;;;;;5053131;28;20460;-70
2024/02/08 03:27:52;;;;;;;5.23;5.13;;;5.00;99.90;;;;;;5055218;28;20469;-70
2024/02/08 03:30:22;;;;;;;4.60;4.60;;;4.90;99.90;;;;;;5049451;28;20886;-70
2024/02/08 03:32:52;;;;;;;4.87;4.87;;;5.00;99.90;;;;;;5055276;28;20452;-72
2024/02/08 03:35:24;;;;;;;4.40;4.40;;;5.00;99.90;;;;;;5050623;28;20590;-71
2024/02/08 03:37:52;;;;;;;4.50;4.50;;;4.80;99.90;;;;;;5052956;28;20829;-71
2024/02/08 03:40:20;;;;;;;4.67;4.67;;;4.70;99.90;;;;;;5052825;28;20464;-71
2024/02/08 03:42:48;;;;;;;4.50;4.50;;;4.80;99.90;;;;;;5048034;28;20455;-69
2024/02/08 03:45:17;;;;;;;4.83;4.83;;;4.70;99.90;;;;;;5056384;28;20459;-72
2024/02/08 03:47:45;;;;;;;4.80;4.80;;;4.80;99.90;;;;;;5051166;28;20491;-70
2024/02/08 03:50:15;;;;;;;4.30;4.30;;;4.80;99.90;;;;;;5053409;28;20470;-72
2024/02/08 03:52:42;;;;;;;4.43;4.43;;;4.80;99.90;;;;;;5053554;28;20460;-71
2024/02/08 03:55:13;;;;;;;4.70;4.70;;;4.90;99.90;;;;;;5053507;28;20490;-71
2024/02/08 03:57:41;;;;;;;4.63;4.63;;;5.00;99.90;;;;;;5048779;28;20912;-69
2024/02/08 04:00:13;;;;;;;4.20;4.20;;;5.00;99.90;;;;;;5063785;28;20471;-70
2024/02/08 04:02:43;;;;;;;4.40;4.40;;;5.00;99.90;;;;;;5056997;28;20955;-71
2024/02/08 04:05:19;;;;;;;5.30;5.20;;;4.90;99.90;;;;;;5056324;28;20468;-72
2024/02/08 04:07:56;;;;;;;5.13;5.03;;;5.00;99.90;;;;;;5054195;28;20572;-71
2024/02/08 04:53:30;;;;;;;5.20;5.10;;;5.00;99.90;;;;;;5054117;28;20537;-71
2024/02/08 04:54:44;;;;;;;5.10;5.00;;;5.10;99.90;;;;;;5049517;28;20495;-71
2024/02/08 04:57:12;;;;;;;4.93;4.93;;;5.10;99.90;;;;;;5053146;28;20463;-72
2024/02/08 04:59:44;;;;;;;5.30;5.20;;;5.00;99.90;;;;;;5055419;28;20496;-70
2024/02/08 05:02:11;;;;;;;4.97;4.97;;;5.00;99.90;;;;;;5051400;28;20751;-71
2024/02/08 05:04:38;;;;;;;5.90;5.80;;;5.00;99.90;;;;;;5049324;28;20460;-70
2024/02/08 05:07:06;;;;;;;5.40;5.30;;;5.20;99.90;;;;;;5052637;28;20464;-70
2024/02/08 05:09:33;;;;;;;6.10;6.00;;;5.20;99.90;;;;;;5054161;28;20455;-70
2024/02/08 05:12:05;;;;;;;5.70;5.60;;;5.20;99.90;;;;;;5052401;28;20467;-70
2024/02/08 05:14:34;;;;;;;5.57;5.47;;;5.30;99.90;;;;;;5051102;28;20582;-70
2024/02/08 05:17:03;;;;;;;6.27;6.17;;;5.20;99.90;;;;;;5049154;28;20545;-69
2024/02/08 05:19:29;;;;;;;6.40;6.30;;;5.30;99.90;;;;;;5055939;28;20524;-69
2024/02/08 05:21:58;;;;;;;5.80;5.70;;;5.30;99.90;;;;;;5051279;28;20474;-70
2024/02/08 05:24:27;;;;;;;6.10;6.00;;;5.20;99.90;;;;;;5047023;28;20473;-72
2024/02/08 05:26:54;;;;;;;6.00;5.90;;;5.10;99.90;;;;;;5048276;28;20452;-70
2024/02/08 05:29:22;;;;;;;6.50;6.40;;;5.20;99.90;;;;;;5053366;28;21069;-69
2024/02/08 05:31:51;;;;;;;6.10;6.00;;;5.20;99.90;;;;;;5062879;28;20459;-70
2024/02/08 05:34:21;;;;;;;5.90;5.80;;;5.20;99.90;;;;;;5055139;28;20511;-72
2024/02/08 05:36:49;;;;;;;5.83;5.73;;;5.20;99.90;;;;;;5047934;28;20530;-71
2024/02/08 05:39:23;;;;;;;5.83;5.73;;;5.20;99.90;;;;;;5056347;28;20453;-71
2024/02/08 05:41:53;;;;;;;6.00;5.90;;;5.10;99.90;;;;;;5049281;28;21220;-71
2024/02/08 05:44:21;;;;;;;5.77;5.67;;;5.20;99.90;;;;;;5049229;28;20475;-71
2024/02/08 05:46:50;;;;;;;5.83;5.73;;;5.10;99.90;;;;;;5049090;28;20550;-70
2024/02/08 05:49:25;;;;;;;6.17;6.07;;;5.20;99.90;;;;;;5047746;28;20547;-71
2024/02/08 05:51:54;;;;;;;6.13;6.03;;;5.30;99.90;;;;;;5049665;28;20460;-71
2024/02/08 05:54:31;;;;;;;6.07;5.97;;;5.20;99.90;;;;;;5056015;28;20886;-71
2024/02/08 05:57:03;;;;;;;6.00;5.90;;;5.20;99.90;;;;;;5052900;28;20488;-73
2024/02/08 05:59:31;;;;;;;6.40;6.30;;;5.20;99.90;;;;;;5047167;28;20559;-70
2024/02/08 06:02:01;;;;;;;6.03;5.93;;;5.10;99.90;;;;;;5043193;28;20982;-70
2024/02/08 06:04:34;;;;;;;6.57;6.47;;;5.10;99.90;;;;;;5055233;28;20444;-69
2024/02/08 06:07:05;;;;;;;6.80;6.70;;;5.20;99.90;;;;;;5050363;28;20467;-72
2024/02/08 06:09:47;;;;;;;7.00;6.90;;;5.20;99.90;;;;;;5050223;28;20558;-71
2024/02/08 06:12:23;;;;;;;7.13;7.03;;;5.30;99.90;;;;;;5048018;28;20468;-70
2024/02/08 06:14:57;;;;;;;6.40;6.30;;;5.30;99.90;;;;;;5054348;28;20494;-69
2024/02/08 06:17:31;;;;;;;6.70;6.60;;;5.30;99.90;;;;;;5047159;28;20567;-71
2024/02/08 06:20:00;;;;;;;6.37;6.27;;;5.20;99.90;;;;;;5049173;28;20460;-70
2024/02/08 06:22:29;;;;;;;6.73;6.63;;;5.20;99.90;;;;;;5051120;28;21096;-69
2024/02/08 06:25:08;;;;;;;6.67;6.57;;;5.20;99.90;;;;;;5050239;28;21251;-70
2024/02/08 06:27:36;;;;;;;6.43;6.33;;;5.30;99.90;;;;;;5050020;28;20455;-72
2024/02/08 06:30:08;;;;;;;6.20;6.10;;;5.30;99.90;;;;;;5047838;28;20892;-72
2024/02/08 06:32:43;;;;;;;6.70;6.60;;;5.30;99.90;;;;;;5045648;28;20948;-69
2024/02/08 06:35:19;;;;;;;7.10;7.00;;;5.30;99.90;;;;;;5051650;28;20487;-71
2024/02/08 06:37:46;;;;;;;6.00;5.90;;;5.30;99.90;;;;;;5052418;28;20551;-70
2024/02/08 06:40:21;;;;;;;6.50;6.40;;;5.30;99.90;;;;;;5055347;28;20544;-72
2024/02/08 06:45:53;;;;;;;6.50;6.40;;;5.20;99.90;;;;;;5062978;28;21007;-72
2024/02/08 07:37:53;;;;;;;9.60;9.40;;;5.30;99.90;;;;;;5047969;28;20503;-70
2024/02/08 07:40:24;;;;;;;9.47;9.27;;;5.40;99.90;;;;;;5047370;28;20798;-70
2024/02/08 07:43:16;;;;;;;9.70;9.50;;;5.20;99.90;;;;;;5049604;28;20461;-71
2024/02/08 07:45:43;;;;;;;10.10;9.90;;;5.30;99.90;;;;;;5048248;28;20515;-71
2024/02/08 07:48:13;;;;;;;9.60;9.40;;;5.30;99.90;;;;;;5047031;28;20832;-69
2024/02/08 07:50:46;;;;;;;9.97;9.77;;;5.40;99.90;;;;;;5048084;28;20464;-70
2024/02/08 07:53:33;;;;;;;10.00;9.80;;;5.30;99.90;;;;;;5044084;28;20459;-69
2024/02/08 07:56:25;;;;;;;10.37;10.17;;;5.30;99.90;;;;;;5044655;28;21563;-69
2024/02/08 07:58:49;;;;;;;11.33;11.03;;;5.30;99.90;;;;;;5048053;28;20843;-70
2024/02/08 08:01:18;;;;;;;14.37;13.87;;;5.30;99.90;;;;;;5049089;28;20461;-68
2024/02/08 08:03:46;;;;;;;16.17;15.53;;;5.30;99.90;;;;;;5049557;28;20574;-69
2024/02/08 08:06:15;;;;;;;16.30;15.60;;;5.30;99.90;;;;;;5051187;28;20487;-70
2024/02/08 08:08:55;;;;;;;17.47;16.67;;;5.30;99.90;;;;;;5044645;28;20464;-70
2024/02/08 08:11:25;;;;;;;16.83;16.13;;;5.30;99.90;;;;;;5045618;28;20472;-70
2024/02/08 08:16:37;;;;;;;16.47;15.77;;;5.40;99.90;;;;;;5046489;28;20494;-71
2024/02/08 08:19:09;;;;;;;16.30;15.70;;;5.30;99.90;;;;;;5048493;28;20472;-71
2024/02/08 08:24:25;;;;;;;16.80;16.10;;;5.30;99.90;;;;;;5041776;28;20876;-71
2024/02/08 08:27:06;;;;;;;16.30;15.70;;;5.50;99.90;;;;;;5048391;28;20529;-71
2024/02/08 08:29:42;;;;;;;16.60;15.90;;;5.40;99.90;;;;;;5046854;28;21019;-71
2024/02/08 08:37:44;;;;;;;16.20;15.60;;;5.40;99.90;;;;;;5048455;28;20493;-70
2024/02/08 08:40:23;;;;;;;16.13;15.53;;;5.40;99.90;;;;;;5046872;28;20468;-71
2024/02/08 08:42:54;;;;;;;16.93;16.23;;;5.50;99.90;;;;;;5042755;28;20459;-71
2024/02/08 08:45:22;;;;;;;17.03;16.33;;;5.60;99.90;;;;;;5049514;28;20483;-71
2024/02/08 08:47:51;;;;;;;17.10;16.40;;;5.60;99.90;;;;;;5047345;28;20887;-70
2024/02/08 08:50:18;;;;;;;17.07;16.37;;;5.70;99.90;;;;;;5047919;28;20468;-71
2024/02/08 08:52:49;;;;;;;17.30;16.60;;;5.70;99.90;;;;;;5040329;28;20491;-72
2024/02/08 08:55:21;;;;;;;17.27;16.47;;;5.70;99.90;;;;;;5045509;28;20571;-71
2024/02/08 08:57:53;;;;;;;17.13;16.43;;;5.80;99.90;;;;;;5046127;28;20898;-72
2024/02/08 09:00:31;;;;;;;16.90;16.20;;;5.80;99.90;;;;;;5048519;28;20804;-71
2024/02/08 09:03:00;;;;;;;16.90;16.20;;;5.80;99.90;;;;;;5047054;28;20464;-70
2024/02/08 09:05:36;;;;;;;17.30;16.60;;;5.80;99.90;;;;;;5043021;28;20603;-72
2024/02/08 09:08:08;;;;;;;17.50;16.80;;;5.90;99.90;;;;;;5046437;28;21002;-70
2024/02/08 09:10:40;;;;;;;16.97;16.27;;;5.90;99.90;;;;;;5045863;28;20466;-71
2024/02/08 09:13:07;;;;;;;17.30;16.60;;;5.90;99.90;;;;;;5039405;28;20997;-71
2024/02/08 09:15:47;;;;;;;16.97;16.27;;;6.00;99.90;;;;;;5049905;28;21051;-70
2024/02/08 09:18:15;;;;;;;16.77;16.07;;;5.90;99.90;;;;;;5047999;28;20539;-71
2024/02/08 09:20:44;;;;;;;17.40;16.70;;;5.90;99.90;;;;;;5042976;28;20577;-71
2024/02/08 09:23:15;;;;;;;17.57;16.77;;;5.80;99.90;;;;;;5048722;28;20551;-69
2024/02/08 09:25:45;;;;;;;17.10;16.40;;;5.90;99.90;;;;;;5048914;28;20464;-71
2024/02/08 09:28:26;;;;;;;17.63;16.83;;;6.00;99.90;;;;;;5043607;28;20469;-70
2024/02/08 09:30:56;;;;;;;17.53;16.73;;;6.00;99.90;;;;;;5045001;28;20805;-69
2024/02/08 09:33:35;;;;;;;18.03;17.23;;;5.90;99.90;;;;;;5046695;28;20584;-70
2024/02/08 09:36:04;;;;;;;18.30;17.50;;;5.80;99.90;;;;;;5049416;28;21004;-71
2024/02/08 09:38:42;;;;;;;18.10;17.30;;;5.90;99.90;;;;;;5049367;28;20466;-69
2024/02/08 09:41:15;;;;;;;17.60;16.80;;;5.80;99.90;;;;;;5045623;28;20587;-71
2024/02/08 09:43:44;;;;;;;17.90;17.10;;;5.80;99.90;;;;;;5047769;28;20500;-71
2024/02/08 09:46:28;;;;;;;17.87;17.07;;;5.90;99.90;;;;;;5048537;28;20475;-69
2024/02/08 09:48:59;;;;;;;16.73;16.03;;;6.00;99.90;;;;;;5047521;28;20467;-71
2024/02/08 09:51:29;;;;;;;16.97;16.27;;;5.90;99.90;;;;;;5043911;28;21049;-70
2024/02/08 09:54:14;;;;;;;17.30;16.60;;;5.90;99.90;;;;;;5047292;28;20476;-70
2024/02/08 09:56:49;;;;;;;16.70;16.10;;;5.90;99.90;;;;;;5047633;28;20542;-69
2024/02/08 09:59:18;;;;;;;16.60;16.00;;;6.00;99.90;;;;;;5045563;28;20489;-71
2024/02/08 10:01:44;;;;;;;15.93;15.33;;;5.90;99.90;;;;;;5045769;28;20495;-71
2024/02/08 10:04:25;;;;;;;15.80;15.20;;;5.90;99.90;;;;;;5045316;28;21073;-70
2024/02/08 10:06:58;;;;;;;15.50;14.90;;;6.10;99.90;;;;;;5046349;28;20528;-70
2024/02/08 10:09:36;;;;;;;15.60;15.10;;;6.10;99.90;;;;;;5047703;28;20464;-73
2024/02/08 10:12:08;;;;;;;15.10;14.60;;;6.10;99.90;;;;;;5047319;28;20567;-72
2024/02/08 10:14:35;;;;;;;14.50;14.00;;;6.10;99.90;;;;;;5043868;28;20472;-70
2024/02/08 10:17:15;;;;;;;15.03;14.53;;;6.00;99.90;;;;;;5045032;28;21038;-72
2024/02/08 10:22:35;;;;;;;14.90;14.40;;;6.10;99.90;;;;;;5046949;28;20772;-72
2024/02/08 10:27:57;;;;;;;16.10;15.50;;;6.00;99.90;;;;;;5047382;28;20478;-73
2024/02/08 10:30:25;;;;;;;15.47;14.97;;;6.00;99.90;;;;;;5048036;28;21037;-72
2024/02/08 10:32:53;;;;;;;16.00;15.40;;;5.90;99.90;;;;;;5041663;28;20463;-73
2024/02/08 10:35:21;;;;;;;15.93;15.33;;;5.90;99.90;;;;;;5041146;28;20510;-72
2024/02/08 10:37:49;;;;;;;15.77;15.17;;;6.00;99.90;;;;;;5045388;28;20497;-72
2024/02/08 10:40:32;;;;;;;16.30;15.70;;;5.90;99.90;;;;;;5043223;28;20948;-70
2024/02/08 10:43:16;;;;;;;16.40;15.80;;;6.00;99.90;;;;;;5045301;28;21002;-71
2024/02/08 10:45:49;;;;;;;16.00;15.40;;;6.10;99.90;;;;;;5040052;28;20463;-73
2024/02/08 10:48:17;;;;;;;16.00;15.40;;;6.00;99.90;;;;;;5048101;28;20457;-74
2024/02/08 10:50:45;;;;;;;15.70;15.20;;;6.00;99.90;;;;;;5041876;28;20475;-73
2024/02/08 10:53:43;;;;;;;16.10;15.50;;;6.00;99.90;;;;;;5039666;28;20951;-73
2024/02/08 10:56:14;;;;;;;15.70;15.20;;;6.10;99.90;;;;;;5046108;28;20687;-72
2024/02/08 10:58:55;;;;;;;16.50;15.90;;;6.10;99.90;;;;;;5044106;28;20503;-71
2024/02/08 11:04:17;;;;;;;15.40;14.90;;;6.20;99.90;;;;;;5041530;28;20490;-74
2024/02/08 11:06:54;;;;;;;15.70;15.20;;;6.10;99.90;;;;;;5046250;28;20775;-74
2024/02/08 11:09:22;;;;;;;15.70;15.20;;;6.10;99.90;;;;;;5047049;28;20499;-72
2024/02/08 11:12:00;;;;;;;15.13;14.63;;;6.10;99.90;;;;;;5041572;28;20467;-74
2024/02/08 11:14:31;;;;;;;15.20;14.70;;;6.10;99.90;;;;;;5041146;28;20989;-70
2024/02/08 11:17:03;;;;;;;15.20;14.70;;;6.20;99.90;;;;;;5044365;28;20498;-73
2024/02/08 11:19:35;;;;;;;15.10;14.60;;;6.20;99.90;;;;;;5043498;28;20464;-76
2024/02/08 11:22:24;;;;;;;15.83;15.33;;;6.20;99.90;;;;;;5042215;28;20471;-75
2024/02/08 11:24:57;;;;;;;15.50;15.00;;;6.20;99.90;;;;;;5044044;28;20576;-74
2024/02/08 11:27:28;;;;;;;15.20;14.70;;;6.20;99.90;;;;;;5050056;28;20467;-73
2024/02/08 11:29:58;;;;;;;15.23;14.73;;;6.20;99.90;;;;;;5043121;28;20460;-72
2024/02/08 11:32:27;;;;;;;14.90;14.40;;;6.20;99.90;;;;;;5044374;28;20472;-73
2024/02/08 11:35:00;;;;;;;15.10;14.60;;;6.20;99.90;;;;;;5050468;28;20495;-75
2024/02/08 11:37:30;;;;;;;14.47;14.07;;;6.10;99.90;;;;;;5046934;28;20850;-73
2024/02/08 11:40:01;;;;;;;15.20;14.70;;;6.20;99.90;;;;;;5043528;28;20472;-75
2024/02/08 11:42:35;;;;;;;14.40;14.00;;;6.20;99.90;;;;;;5048082;28;20500;-72
2024/02/08 11:45:08;;;;;;;14.33;13.93;;;6.20;99.90;;;;;;5041756;28;21022;-72
2024/02/08 11:47:37;;;;;;;14.10;13.70;;;6.30;99.90;;;;;;5048585;28;20456;-75
2024/02/08 11:50:08;;;;;;;13.90;13.50;;;6.30;99.90;;;;;;5047130;28;20497;-74
2024/02/08 11:52:38;;;;;;;14.70;14.20;;;6.30;99.90;;;;;;5043006;28;21023;-73
2024/02/08 11:55:08;;;;;;;14.70;14.20;;;6.50;99.90;;;;;;5049869;28;20480;-74
2024/02/08 11:57:40;;;;;;;14.70;14.20;;;6.60;99.90;;;;;;5048666;28;20489;-74
2024/02/08 12:00:16;;;;;;;14.53;14.03;;;6.70;99.90;;;;;;5044461;28;20527;-75
2024/02/08 12:02:56;;;;;;;14.17;13.77;;;6.80;99.90;;;;;;5048934;28;20535;-72
2024/02/08 12:05:24;;;;;;;15.13;14.63;;;6.80;99.90;;;;;;5048894;28;20544;-73
2024/02/08 12:07:51;;;;;;;14.90;14.40;;;6.90;99.90;;;;;;5043283;28;20460;-73
2024/02/08 12:10:21;;;;;;;14.67;14.17;;;6.80;99.90;;;;;;5048004;28;20909;-72
2024/02/08 12:12:53;;;;;;;14.70;14.20;;;6.80;99.90;;;;;;5045572;28;20471;-70
2024/02/08 12:15:22;;;;;;;14.57;14.10;;;6.70;99.90;;;;;;5049747;28;21414;-75
2024/02/08 12:17:52;;;;;;;13.47;13.07;;;6.50;99.90;;;;;;5047295;28;20526;-74
2024/02/08 12:20:19;;;;;;;14.27;13.87;;;6.40;99.90;;;;;;5048084;28;20483;-75
2024/02/08 12:22:53;;;;;;;14.87;14.37;;;6.40;99.90;;;;;;5047958;28;20552;-72
2024/02/08 12:25:21;;;;;;;15.00;14.50;;;6.50;99.90;;;;;;5045108;28;20500;-74
2024/02/08 12:27:50;;;;;;;14.60;14.20;;;6.60;99.90;;;;;;5047137;28;20842;-74
2024/02/08 12:30:24;;;;;;;14.70;14.30;;;6.70;99.90;;;;;;5047112;28;20475;-70
2024/02/08 12:32:52;;;;;;;14.90;14.40;;;6.60;99.90;;;;;;5047468;28;20502;-72
2024/02/08 12:35:26;;;;;;;15.30;14.80;;;6.60;99.90;;;;;;5048286;28;20778;-75
2024/02/08 12:37:58;;;;;;;15.20;14.70;;;6.70;99.90;;;;;;5044017;28;20498;-71
2024/02/08 12:40:29;;;;;;;15.50;15.00;;;6.70;99.90;;;;;;5047443;28;20666;-70
2024/02/08 12:42:57;;;;;;;15.60;15.10;;;6.80;99.90;;;;;;5046922;28;20460;-74
2024/02/08 12:45:28;;;;;;;15.63;15.13;;;6.80;99.90;;;;;;5046808;28;20473;-70
2024/02/08 12:47:57;;;;;;;15.27;14.77;;;6.70;99.90;;;;;;5045827;28;20893;-71
2024/02/08 12:50:24;;;;;;;15.20;14.70;;;6.90;99.90;;;;;;5042248;28;21028;-70
2024/02/08 12:52:55;;;;;;;15.40;14.90;;;6.80;99.90;;;;;;5045559;28;20470;-75
2024/02/08 12:55:24;;;;;;;15.60;15.10;;;6.80;99.90;;;;;;5046791;28;20465;-70
2024/02/08 12:57:58;;;;;;;16.60;16.00;;;6.90;99.90;;;;;;5045927;28;20928;-71
2024/02/08 13:00:27;;;;;;;16.90;16.30;;;6.90;99.90;;;;;;5042508;28;20811;-72
2024/02/08 13:02:55;;;;;;;16.17;15.57;;;6.90;99.90;;;;;;5042323;28;20461;-72
2024/02/08 13:05:29;;;;;;;16.77;16.17;;;6.80;99.90;;;;;;5043028;28;20467;-71
2024/02/08 13:07:59;;;;;;;17.30;16.60;;;6.80;99.90;;;;;;5045334;28;20463;-73
2024/02/08 13:10:28;;;;;;;17.57;16.87;;;6.90;99.90;;;;;;5045802;28;20469;-73
2024/02/08 13:12:59;;;;;;;16.83;16.23;;;7.00;99.90;;;;;;5047304;28;20479;-72
2024/02/08 13:15:32;;;;;;;17.40;16.70;;;7.00;99.90;;;;;;5043902;28;20460;-74
2024/02/08 13:17:59;;;;;;;17.57;16.90;;;7.10;99.90;;;;;;5044537;28;20508;-72
2024/02/08 13:20:27;;;;;;;17.37;16.70;;;7.10;99.90;;;;;;5040746;28;20478;-74
2024/02/08 13:22:55;;;;;;;17.00;16.40;;;7.10;99.90;;;;;;5045841;28;20507;-75
2024/02/08 13:25:27;;;;;;;15.70;15.20;;;7.00;99.90;;;;;;5043015;28;20472;-71
2024/02/08 13:27:58;;;;;;;15.90;15.40;;;7.10;99.90;;;;;;5048775;28;20456;-75
2024/02/08 13:30:25;;;;;;;16.40;15.80;;;7.20;99.90;;;;;;5047924;28;20548;-74
2024/02/08 13:32:55;;;;;;;16.17;15.60;;;7.20;99.90;;;;;;5044033;28;20502;-74
2024/02/08 13:35:23;;;;;;;16.20;15.60;;;7.20;99.90;;;;;;5040806;28;20591;-74
2024/02/08 13:37:52;;;;;;;15.53;15.03;;;7.20;99.90;;;;;;5043245;28;20596;-72
2024/02/08 13:40:19;;;;;;;16.00;15.50;;;7.20;99.90;;;;;;5044318;28;20476;-71
2024/02/08 13:42:47;;;;;;;15.90;15.40;;;7.10;99.90;;;;;;5043690;28;20464;-72
2024/02/08 13:45:15;;;;;;;16.10;15.60;;;7.20;99.90;;;;;;5045495;28;20468;-73
2024/02/08 13:47:49;;;;;;;16.00;15.50;;;7.20;99.90;;;;;;5044806;28;22251;-71
2024/02/08 13:50:18;;;;;;;15.87;15.37;;;7.20;99.90;;;;;;5045776;28;20468;-70
2024/02/08 13:52:48;;;;;;;15.67;15.17;;;7.20;99.90;;;;;;5040236;28;20605;-73
2024/02/08 13:55:17;;;;;;;15.37;14.87;;;7.30;99.90;;;;;;5045210;28;20465;-74
2024/02/08 13:57:49;;;;;;;15.40;14.90;;;7.30;99.90;;;;;;5047437;28;20502;-75
2024/02/08 14:00:20;;;;;;;15.27;14.77;;;7.30;99.90;;;;;;5047199;28;21010;-73
2024/02/08 14:02:49;;;;;;;15.77;15.27;;;7.30;99.90;;;;;;5045926;28;20471;-73
2024/02/08 14:05:19;;;;;;;15.83;15.33;;;7.30;99.90;;;;;;5043379;28;20556;-73
2024/02/08 14:07:48;;;;;;;15.70;15.20;;;7.40;99.90;;;;;;5040873;28;20538;-72
2024/02/08 14:10:17;;;;;;;15.20;14.70;;;7.50;99.90;;;;;;5044014;28;20463;-75
2024/02/08 14:12:48;;;;;;;15.40;14.90;;;7.50;99.90;;;;;;5042993;28;20990;-71
2024/02/08 14:15:21;;;;;;;16.10;15.60;;;7.50;99.90;;;;;;5045818;28;20801;-71
2024/02/08 14:17:54;;;;;;;15.77;15.27;;;7.50;99.90;;;;;;5046170;28;20497;-74
2024/02/08 14:20:41;;;;;;;15.17;14.67;;;7.40;99.90;;;;;;5040906;28;20472;-75
2024/02/08 14:23:09;;;;;;;15.30;14.80;;;7.50;99.90;;;;;;5043807;28;20466;-76
2024/02/08 14:26:01;;;;;;;16.10;15.60;;;7.60;99.90;;;;;;5041660;28;20476;-74
2024/02/08 14:28:30;;;;;;;15.63;15.13;;;7.50;99.90;;;;;;5047059;28;20467;-71
2024/02/08 14:30:59;;;;;;;15.50;15.00;;;7.50;99.90;;;;;;5044718;28;20464;-71
2024/02/08 14:33:27;;;;;;;15.50;15.00;;;7.50;99.90;;;;;;5045719;28;20467;-72
2024/02/08 14:35:55;;;;;;;14.90;14.50;;;7.50;99.90;;;;;;5039959;28;20474;-72
2024/02/08 14:38:23;;;;;;;15.57;15.07;;;7.50;99.90;;;;;;5043716;28;20480;-72
2024/02/08 14:40:51;;;;;;;15.93;15.43;;;7.50;99.90;;;;;;5043458;28;20460;-72
2024/02/08 14:43:25;;;;;;;15.03;14.63;;;7.50;99.90;;;;;;5045554;28;20499;-72
2024/02/08 14:45:53;;;;;;;15.73;15.23;;;7.50;99.90;;;;;;5045769;28;20448;-71
2024/02/08 14:48:26;;;;;;;16.17;15.67;;;7.60;99.90;;;;;;5044902;28;21131;-71
2024/02/08 14:50:59;;;;;;;15.87;15.37;;;7.60;99.90;;;;;;5047255;28;20478;-71
2024/02/08 14:53:26;;;;;;;15.87;15.37;;;7.70;99.90;;;;;;5040401;28;20472;-71
2024/02/08 14:55:55;;;;;;;16.33;15.83;;;7.70;99.90;;;;;;5043675;28;20475;-71
2024/02/08 14:58:40;;;;;;;16.87;16.30;;;7.80;99.90;;;;;;5048526;28;20507;-71